Time;durP1;ratioP1;P1;durP2;ratioP2;P2;SDS_P1;SDS_P2;PMS_P1;PMS_P2;Temp;Humidity;BMP_temperature;BMP_pressure;BME280_temperature;BME280_humidity;BME280_pressure;Samples;Min_cycle;Max_cycle;Signal;HPM_P1;HPM_P2
2023/02/05 00:00:55;;;;;;;1.42;0.90;;;7.10;91.00;;;;;;6105195;23;20085;-76
2023/02/05 00:03:20;;;;;;;2.13;1.13;;;7.10;90.90;;;;;;6129098;23;20006;-76
2023/02/05 00:05:46;;;;;;;3.45;1.30;;;7.10;90.90;;;;;;6128247;23;20440;-76
2023/02/05 00:08:12;;;;;;;1.65;0.90;;;7.20;91.00;;;;;;6104275;23;20450;-77
2023/02/05 00:10:38;;;;;;;1.38;0.90;;;7.10;91.00;;;;;;6103925;23;20006;-77
2023/02/05 00:13:03;;;;;;;2.15;1.17;;;7.20;91.00;;;;;;6190327;23;20013;-76
2023/02/05 00:15:37;;;;;;;1.80;1.10;;;7.10;91.00;;;;;;6163688;23;20036;-77
2023/02/05 00:18:03;;;;;;;1.55;0.90;;;7.10;91.00;;;;;;6160456;23;20349;-77
2023/02/05 00:20:29;;;;;;;1.45;0.93;;;7.10;91.00;;;;;;6163113;23;20459;-77
2023/02/05 00:22:55;;;;;;;1.50;0.98;;;7.20;91.10;;;;;;6215379;23;19996;-76
2023/02/05 00:25:28;;;;;;;1.63;0.85;;;7.30;91.10;;;;;;6192180;23;20004;-75
2023/02/05 00:27:56;;;;;;;2.13;1.05;;;7.10;91.00;;;;;;6113906;23;20013;-75
2023/02/05 00:30:22;;;;;;;1.58;0.90;;;7.20;91.10;;;;;;6094102;23;20089;-75
2023/02/05 00:32:48;;;;;;;1.27;0.93;;;7.20;91.10;;;;;;6037601;23;20026;-75
2023/02/05 00:35:15;;;;;;;3.28;1.10;;;7.20;91.10;;;;;;6065111;23;20025;-74
2023/02/05 00:37:41;;;;;;;1.88;1.15;;;7.20;91.00;;;;;;6086027;23;20088;-74
2023/02/05 00:40:07;;;;;;;1.98;1.00;;;7.20;91.00;;;;;;6140239;23;20025;-75
2023/02/05 00:42:33;;;;;;;2.22;1.10;;;7.30;91.10;;;;;;6068232;23;20007;-75
2023/02/05 00:44:59;;;;;;;2.63;1.30;;;7.20;91.00;;;;;;6032749;23;20020;-75
2023/02/05 00:47:24;;;;;;;3.55;1.35;;;7.30;91.10;;;;;;6053762;23;20034;-76
2023/02/05 00:49:50;;;;;;;3.20;1.30;;;7.30;91.00;;;;;;6052940;23;20014;-76
2023/02/05 00:52:16;;;;;;;3.42;1.38;;;7.30;91.00;;;;;;6075840;23;20006;-77
2023/02/05 00:54:42;;;;;;;2.38;1.40;;;7.30;91.00;;;;;;6028471;23;20057;-76
2023/02/05 00:57:07;;;;;;;2.78;1.30;;;7.30;91.00;;;;;;6033661;23;20062;-76
2023/02/05 00:59:33;;;;;;;3.40;1.40;;;7.30;91.00;;;;;;6083916;23;20041;-76
2023/02/05 01:01:59;;;;;;;4.05;1.45;;;7.40;91.00;;;;;;6155571;23;20004;-76
2023/02/05 01:04:28;;;;;;;4.07;1.50;;;7.40;91.00;;;;;;6192717;23;20513;-76
2023/02/05 01:06:53;;;;;;;6.18;1.80;;;7.30;91.00;;;;;;6190781;23;20425;-75
2023/02/05 01:09:20;;;;;;;4.95;1.80;;;7.40;91.00;;;;;;6189680;23;20380;-75
2023/02/05 01:11:46;;;;;;;3.88;1.67;;;7.50;91.10;;;;;;6190482;23;20008;-75
2023/02/05 01:14:14;;;;;;;5.90;2.30;;;7.40;91.00;;;;;;6172279;23;20001;-77
2023/02/05 01:16:40;;;;;;;5.78;2.20;;;7.40;91.00;;;;;;6195192;23;20011;-76
2023/02/05 01:19:06;;;;;;;4.15;1.92;;;7.40;91.00;;;;;;6224805;23;20098;-75
2023/02/05 01:21:34;;;;;;;3.55;1.95;;;7.40;91.00;;;;;;6219469;23;20011;-77
2023/02/05 01:24:00;;;;;;;5.03;2.13;;;7.50;91.10;;;;;;6200067;23;20008;-76
2023/02/05 01:26:26;;;;;;;4.45;1.88;;;7.50;91.40;;;;;;6198339;23;20400;-75
2023/02/05 01:28:51;;;;;;;5.80;2.45;;;7.40;91.00;;;;;;6255332;23;20066;-75
2023/02/05 01:31:19;;;;;;;5.43;2.25;;;7.50;91.10;;;;;;6176897;23;20000;-76
2023/02/05 01:33:45;;;;;;;5.40;2.25;;;7.50;91.10;;;;;;6200063;23;20000;-77
2023/02/05 01:36:10;;;;;;;6.55;2.53;;;7.50;91.10;;;;;;6171518;23;20008;-76
2023/02/05 01:38:36;;;;;;;5.72;2.38;;;7.50;91.10;;;;;;6221230;23;20091;-78
2023/02/05 01:41:02;;;;;;;6.35;2.42;;;7.50;91.10;;;;;;6168654;23;20000;-77
2023/02/05 01:43:31;;;;;;;6.50;2.53;;;7.50;91.10;;;;;;6208762;23;19996;-75
2023/02/05 01:46:20;;;;;;;5.05;2.28;;;7.60;91.20;;;;;;6179524;23;19996;-75
2023/02/05 01:48:51;;;;;;;4.47;2.15;;;7.50;91.20;;;;;;6206291;23;20019;-76
2023/02/05 01:51:17;;;;;;;5.90;2.40;;;7.60;91.20;;;;;;6256760;23;20011;-78
2023/02/05 01:53:44;;;;;;;6.57;2.20;;;7.50;91.20;;;;;;6229660;23;20004;-76
2023/02/05 01:56:28;;;;;;;6.10;2.30;;;7.70;91.30;;;;;;6206367;23;20005;-75
2023/02/05 01:59:00;;;;;;;4.30;2.20;;;7.60;91.30;;;;;;6206225;23;20081;-78
2023/02/05 02:01:26;;;;;;;4.72;2.10;;;7.60;91.30;;;;;;6175101;23;20019;-75
2023/02/05 02:03:55;;;;;;;5.22;2.65;;;7.70;91.30;;;;;;6162535;23;20018;-75
2023/02/05 02:06:21;;;;;;;5.70;2.28;;;7.50;91.30;;;;;;6134951;23;20023;-77
2023/02/05 02:08:47;;;;;;;4.93;2.05;;;7.60;91.30;;;;;;6170872;23;20041;-77
2023/02/05 02:11:16;;;;;;;4.72;2.17;;;7.60;91.40;;;;;;6138877;23;20029;-77
2023/02/05 02:13:45;;;;;;;3.80;1.90;;;7.60;91.40;;;;;;6133517;23;20020;-77
2023/02/05 02:16:11;;;;;;;4.03;1.92;;;7.50;91.40;;;;;;6089630;23;20002;-77
2023/02/05 02:18:47;;;;;;;5.55;2.33;;;7.80;91.50;;;;;;6136071;23;20116;-78
2023/02/05 02:21:39;;;;;;;4.70;2.00;;;7.60;91.70;;;;;;6109982;23;20009;-77
2023/02/05 02:24:29;;;;;;;4.35;2.03;;;7.60;91.40;;;;;;6074854;23;20057;-78
2023/02/05 02:27:14;;;;;;;3.83;2.10;;;7.50;91.40;;;;;;6058683;23;20050;-77
2023/02/05 02:29:54;;;;;;;4.82;1.98;;;7.60;91.50;;;;;;6077350;23;20006;-77
2023/02/05 02:32:45;;;;;;;5.90;2.90;;;7.60;91.50;;;;;;6053585;23;20038;-78
2023/02/05 02:35:28;;;;;;;5.97;2.95;;;7.60;91.50;;;;;;6099214;23;20018;-78
2023/02/05 02:38:02;;;;;;;6.57;3.25;;;7.60;91.50;;;;;;6081208;23;20103;-78
2023/02/05 02:40:38;;;;;;;5.85;2.78;;;7.50;91.40;;;;;;6121591;23;20010;-76
2023/02/05 02:43:24;;;;;;;6.35;2.88;;;7.70;91.50;;;;;;6106002;23;20029;-78
2023/02/05 02:45:57;;;;;;;5.60;2.95;;;7.50;91.50;;;;;;6136770;23;20018;-78
2023/02/05 02:48:24;;;;;;;5.72;3.13;;;7.60;91.40;;;;;;6106469;23;20014;-77
2023/02/05 02:50:53;;;;;;;6.32;3.15;;;7.60;91.40;;;;;;6120370;23;20009;-76
2023/02/05 02:53:25;;;;;;;5.97;3.15;;;7.60;91.40;;;;;;6106887;23;20441;-77
2023/02/05 02:55:53;;;;;;;6.05;3.40;;;7.60;91.50;;;;;;6128782;23;20063;-77
2023/02/05 02:58:23;;;;;;;7.45;3.42;;;7.60;91.40;;;;;;6157088;23;20092;-77
2023/02/05 03:00:51;;;;;;;6.07;3.20;;;7.60;91.40;;;;;;6187221;23;20004;-77
2023/02/05 03:03:19;;;;;;;6.75;3.53;;;7.60;91.50;;;;;;6228178;23;20007;-77
2023/02/05 03:05:47;;;;;;;6.97;3.65;;;7.60;91.50;;;;;;6244502;23;19996;-77
2023/02/05 03:08:21;;;;;;;7.47;3.63;;;7.60;91.60;;;;;;6244616;23;20302;-77
2023/02/05 03:10:56;;;;;;;6.57;3.55;;;7.60;91.60;;;;;;6244318;23;20045;-77
2023/02/05 03:13:22;;;;;;;6.00;3.20;;;7.60;91.60;;;;;;6244346;23;20332;-77
2023/02/05 03:15:48;;;;;;;5.82;3.00;;;7.60;91.60;;;;;;6244921;23;20000;-77
2023/02/05 03:18:16;;;;;;;6.32;3.25;;;7.60;91.60;;;;;;6217245;23;20008;-77
2023/02/05 03:20:49;;;;;;;6.45;3.80;;;7.60;91.60;;;;;;6192750;23;20054;-77
2023/02/05 03:23:15;;;;;;;7.10;3.72;;;7.60;91.70;;;;;;6217379;23;19996;-77
2023/02/05 03:25:41;;;;;;;6.25;3.47;;;7.60;92.00;;;;;;6245621;23;20011;-76
2023/02/05 03:28:07;;;;;;;5.93;3.38;;;7.60;91.70;;;;;;6229650;23;20004;-76
2023/02/05 03:30:48;;;;;;;6.38;3.50;;;7.50;91.70;;;;;;6268776;23;20000;-76
2023/02/05 03:33:38;;;;;;;5.95;3.28;;;7.60;91.70;;;;;;6228593;23;20428;-76
2023/02/05 03:36:28;;;;;;;5.43;3.10;;;7.50;91.80;;;;;;6241814;23;20000;-77
2023/02/05 03:39:07;;;;;;;6.22;3.47;;;7.40;91.70;;;;;;6260512;23;20015;-76
2023/02/05 03:41:54;;;;;;;8.02;4.03;;;7.50;91.80;;;;;;6244717;23;19992;-76
2023/02/05 03:44:43;;;;;;;7.13;3.88;;;7.50;91.80;;;;;;6239088;23;20028;-76
2023/02/05 03:47:33;;;;;;;8.10;3.88;;;7.50;91.80;;;;;;6233806;23;20007;-75
2023/02/05 03:50:15;;;;;;;6.45;3.47;;;7.50;91.80;;;;;;6212829;23;20024;-76
2023/02/05 03:52:46;;;;;;;5.78;3.33;;;7.50;91.80;;;;;;6235989;23;20061;-76
2023/02/05 03:55:18;;;;;;;6.30;3.45;;;7.50;91.80;;;;;;6236232;23;20003;-76
2023/02/05 03:57:59;;;;;;;7.63;3.40;;;7.40;91.90;;;;;;6211896;23;20075;-77
2023/02/05 04:00:25;;;;;;;6.18;3.00;;;7.50;91.90;;;;;;6211879;23;19996;-77
2023/02/05 04:02:51;;;;;;;5.85;2.95;;;7.50;91.90;;;;;;6211792;23;20456;-77
2023/02/05 04:05:21;;;;;;;6.97;3.25;;;7.50;91.90;;;;;;6211570;23;20000;-77
2023/02/05 04:07:47;;;;;;;4.72;2.53;;;7.40;91.90;;;;;;6218733;23;20004;-76
2023/02/05 04:10:13;;;;;;;5.55;2.90;;;7.50;91.90;;;;;;6232143;23;20005;-76
2023/02/05 04:12:39;;;;;;;5.95;2.90;;;7.40;91.90;;;;;;6197296;23;20108;-77
2023/02/05 04:15:07;;;;;;;4.35;2.50;;;7.50;92.00;;;;;;6214881;23;20429;-77
2023/02/05 04:17:33;;;;;;;4.60;2.38;;;7.50;91.90;;;;;;6214361;23;20059;-77
2023/02/05 04:19:59;;;;;;;5.60;2.35;;;7.50;92.00;;;;;;6214737;23;20298;-77
2023/02/05 04:22:25;;;;;;;5.22;3.00;;;7.40;91.90;;;;;;6213182;23;20007;-77
2023/02/05 04:24:50;;;;;;;4.78;2.47;;;7.40;91.90;;;;;;6213097;23;20000;-75
2023/02/05 04:27:16;;;;;;;6.40;2.92;;;7.40;91.90;;;;;;6214500;23;19997;-77
2023/02/05 04:29:42;;;;;;;4.80;2.42;;;7.50;91.90;;;;;;6215364;23;20005;-77
2023/02/05 04:32:07;;;;;;;4.93;2.67;;;7.40;91.90;;;;;;6214515;23;20071;-77
2023/02/05 04:34:33;;;;;;;4.63;2.53;;;7.40;92.00;;;;;;6188370;23;20005;-77
2023/02/05 04:36:59;;;;;;;5.78;3.05;;;7.40;92.00;;;;;;6212800;23;20055;-77
2023/02/05 04:39:25;;;;;;;5.30;2.97;;;7.40;92.00;;;;;;6214316;23;20016;-77
2023/02/05 04:41:50;;;;;;;5.30;2.67;;;7.40;92.20;;;;;;6214411;23;19997;-77
2023/02/05 04:44:16;;;;;;;5.47;3.10;;;7.40;92.00;;;;;;6214561;23;20001;-77
2023/02/05 04:46:41;;;;;;;5.55;2.97;;;7.40;92.00;;;;;;6213736;23;20293;-77
2023/02/05 04:49:08;;;;;;;5.68;3.28;;;7.40;92.00;;;;;;6214387;23;20008;-76
2023/02/05 04:51:33;;;;;;;4.47;2.60;;;7.40;92.00;;;;;;6163558;23;20054;-77
2023/02/05 04:53:59;;;;;;;6.28;2.80;;;7.40;92.00;;;;;;6163196;23;20040;-77
2023/02/05 04:56:25;;;;;;;4.72;2.50;;;7.30;92.00;;;;;;6188501;23;20009;-77
2023/02/05 04:58:50;;;;;;;4.57;2.60;;;7.40;92.00;;;;;;6188083;23;20017;-77
2023/02/05 05:01:19;;;;;;;7.70;3.38;;;7.30;92.00;;;;;;6188731;23;20487;-77
2023/02/05 05:03:46;;;;;;;5.85;2.90;;;7.30;92.00;;;;;;6215180;23;20397;-77
2023/02/05 05:06:13;;;;;;;4.88;2.50;;;7.40;92.00;;;;;;6187826;23;20058;-77
2023/02/05 05:08:39;;;;;;;4.80;2.50;;;7.40;92.00;;;;;;6215746;23;20058;-76
2023/02/05 05:11:08;;;;;;;4.53;2.53;;;7.30;92.00;;;;;;6188544;23;20369;-77
2023/02/05 05:13:35;;;;;;;4.68;2.55;;;7.30;92.00;;;;;;6188489;23;20087;-77
2023/02/05 05:16:01;;;;;;;5.57;2.88;;;7.30;92.00;;;;;;6214974;23;20461;-77
2023/02/05 05:18:27;;;;;;;4.53;2.40;;;7.30;92.00;;;;;;6187526;23;20047;-77
2023/02/05 05:20:53;;;;;;;4.70;2.70;;;7.30;92.00;;;;;;6188073;23;20007;-77
2023/02/05 05:23:19;;;;;;;4.88;2.58;;;7.30;92.00;;;;;;6188255;23;20005;-77
2023/02/05 05:25:46;;;;;;;6.13;2.42;;;7.30;92.00;;;;;;6188639;23;20005;-77
2023/02/05 05:28:13;;;;;;;5.03;2.67;;;7.30;92.00;;;;;;6215341;23;20012;-77
2023/02/05 05:30:41;;;;;;;4.07;2.30;;;7.30;92.10;;;;;;6214745;23;20001;-77
2023/02/05 05:33:06;;;;;;;4.90;2.40;;;7.40;92.10;;;;;;6188627;23;20091;-77
2023/02/05 05:35:32;;;;;;;4.07;2.17;;;7.30;92.10;;;;;;6188143;23;20032;-77
2023/02/05 05:37:58;;;;;;;4.32;2.20;;;7.40;92.40;;;;;;6163021;23;20405;-78
2023/02/05 05:45:41;;;;;;;4.47;2.40;;;7.20;92.10;;;;;;6214551;23;20005;-77
2023/02/05 05:48:07;;;;;;;5.05;2.25;;;7.20;92.10;;;;;;6188576;23;20031;-77
2023/02/05 05:50:33;;;;;;;4.15;2.30;;;7.20;92.20;;;;;;6217722;23;20001;-77
2023/02/05 05:52:59;;;;;;;3.25;1.73;;;7.20;92.10;;;;;;6202390;23;20063;-77
2023/02/05 05:55:25;;;;;;;2.35;1.58;;;7.20;92.20;;;;;;6213744;23;19997;-77
2023/02/05 05:57:50;;;;;;;3.88;2.00;;;7.20;92.20;;;;;;6241275;23;19999;-78
2023/02/05 06:00:16;;;;;;;3.10;1.90;;;7.20;92.20;;;;;;6242741;23;20001;-76
2023/02/05 06:02:43;;;;;;;3.45;2.10;;;7.20;92.20;;;;;;6216663;23;20530;-77
2023/02/05 06:05:09;;;;;;;5.70;2.60;;;7.20;92.20;;;;;;6242342;23;19997;-78
2023/02/05 06:07:35;;;;;;;7.63;3.00;;;7.20;92.20;;;;;;6216124;23;20043;-77
2023/02/05 06:10:01;;;;;;;4.00;2.10;;;7.10;92.20;;;;;;6242310;23;20020;-77
2023/02/05 06:12:26;;;;;;;3.45;1.90;;;7.20;92.20;;;;;;6216379;23;20013;-77
2023/02/05 06:14:52;;;;;;;3.03;1.80;;;7.20;92.20;;;;;;6242426;23;20043;-78
2023/02/05 06:17:17;;;;;;;3.80;1.95;;;7.20;92.20;;;;;;6242610;23;20004;-79
2023/02/05 06:19:43;;;;;;;3.60;2.00;;;7.20;92.50;;;;;;6190348;23;20016;-78
2023/02/05 06:22:12;;;;;;;3.40;1.88;;;7.20;92.20;;;;;;6214924;23;20003;-77
2023/02/05 06:24:37;;;;;;;3.35;1.75;;;7.20;92.20;;;;;;6184681;23;20017;-77
2023/02/05 06:27:03;;;;;;;3.95;1.95;;;7.20;92.20;;;;;;6224976;23;19993;-77
2023/02/05 06:29:29;;;;;;;3.17;1.70;;;7.20;92.10;;;;;;6240337;23;20013;-78
2023/02/05 06:31:54;;;;;;;2.33;1.55;;;7.20;92.10;;;;;;6214346;23;20076;-77
2023/02/05 06:34:20;;;;;;;3.30;1.40;;;7.20;92.10;;;;;;6211848;23;19981;-78
2023/02/05 06:36:46;;;;;;;3.40;1.38;;;7.10;92.00;;;;;;6238549;23;20023;-77
2023/02/05 06:39:11;;;;;;;1.83;0.80;;;7.00;92.00;;;;;;6186126;23;20047;-78
2023/02/05 06:41:37;;;;;;;1.67;0.68;;;7.00;92.10;;;;;;6237725;23;20001;-75
2023/02/05 06:44:03;;;;;;;1.58;0.80;;;6.90;92.10;;;;;;6204750;23;20005;-75
2023/02/05 06:46:29;;;;;;;1.63;0.70;;;6.80;92.10;;;;;;6182250;23;20007;-76
2023/02/05 06:48:54;;;;;;;2.03;0.60;;;6.80;92.20;;;;;;6187847;23;19996;-76
2023/02/05 06:51:20;;;;;;;2.15;0.70;;;6.80;92.20;;;;;;6212801;23;19997;-77
2023/02/05 06:53:46;;;;;;;1.38;0.60;;;6.70;92.20;;;;;;6213469;23;20004;-76
2023/02/05 06:56:11;;;;;;;6.07;0.80;;;6.60;92.20;;;;;;6212909;23;19984;-75
2023/02/05 06:58:37;;;;;;;1.17;0.50;;;6.60;92.20;;;;;;6212015;23;20004;-75
2023/02/05 07:01:03;;;;;;;1.15;0.57;;;6.60;92.20;;;;;;6211390;23;20009;-75
2023/02/05 07:03:28;;;;;;;1.77;0.65;;;6.50;92.20;;;;;;6206412;23;20003;-76
2023/02/05 07:05:54;;;;;;;0.93;0.32;;;6.50;92.20;;;;;;6235494;23;20003;-75
2023/02/05 07:08:19;;;;;;;1.48;0.57;;;6.50;92.20;;;;;;6185673;23;20298;-76
2023/02/05 07:10:45;;;;;;;1.67;0.38;;;6.60;92.20;;;;;;6238672;23;20003;-75
2023/02/05 07:13:11;;;;;;;1.65;0.50;;;6.50;92.20;;;;;;6213732;23;20000;-76
2023/02/05 07:15:37;;;;;;;1.70;0.50;;;6.40;92.10;;;;;;6213032;23;20140;-76
2023/02/05 07:18:03;;;;;;;1.45;0.40;;;6.40;92.10;;;;;;6212235;23;19995;-76
2023/02/05 07:20:30;;;;;;;2.22;0.47;;;6.40;92.20;;;;;;6213610;23;20007;-76
2023/02/05 07:22:55;;;;;;;1.45;0.50;;;6.40;92.20;;;;;;6210630;23;19997;-75
2023/02/05 07:25:21;;;;;;;1.38;0.40;;;6.30;92.20;;;;;;6211216;23;20003;-75
2023/02/05 07:27:47;;;;;;;0.57;0.30;;;6.40;92.20;;;;;;6212038;23;20020;-76
2023/02/05 07:30:13;;;;;;;1.08;0.40;;;6.40;92.20;;;;;;6236661;23;19996;-75
2023/02/05 07:32:39;;;;;;;2.63;0.47;;;6.40;92.20;;;;;;6210134;23;20001;-75
2023/02/05 07:35:05;;;;;;;0.82;0.38;;;6.40;92.20;;;;;;6210745;23;20028;-75
2023/02/05 07:37:31;;;;;;;2.22;0.40;;;6.40;92.20;;;;;;6206914;23;20000;-75
2023/02/05 07:39:56;;;;;;;0.30;0.17;;;6.40;92.10;;;;;;6235905;23;20020;-76
2023/02/05 07:42:22;;;;;;;1.70;0.43;;;6.40;92.10;;;;;;6235031;23;20007;-76
2023/02/05 07:44:47;;;;;;;0.43;0.30;;;6.40;92.10;;;;;;6209890;23;20005;-75
2023/02/05 07:47:13;;;;;;;1.92;0.57;;;6.40;92.10;;;;;;6209248;23;20333;-75
2023/02/05 07:49:39;;;;;;;1.15;0.43;;;6.40;92.00;;;;;;6210309;23;19997;-75
2023/02/05 07:52:05;;;;;;;0.63;0.30;;;6.40;92.00;;;;;;6184423;23;20020;-76
2023/02/05 07:54:31;;;;;;;2.08;0.52;;;6.50;92.10;;;;;;6234981;23;19997;-75
2023/02/05 07:56:59;;;;;;;1.13;0.50;;;6.50;92.00;;;;;;6182861;23;20349;-75
2023/02/05 07:59:25;;;;;;;2.45;0.35;;;6.50;92.00;;;;;;6233825;23;20035;-75
2023/02/05 08:01:50;;;;;;;0.88;0.30;;;6.50;92.00;;;;;;6234050;23;19997;-75
2023/02/05 08:04:16;;;;;;;0.80;0.38;;;6.50;92.00;;;;;;6233433;23;20003;-75
2023/02/05 08:06:42;;;;;;;2.00;0.32;;;6.50;92.00;;;;;;6183908;23;19996;-75
2023/02/05 08:09:09;;;;;;;1.00;0.28;;;6.50;91.90;;;;;;6205442;23;20008;-75
2023/02/05 08:11:34;;;;;;;1.85;0.40;;;6.50;91.90;;;;;;6230839;23;20068;-75
2023/02/05 08:14:01;;;;;;;2.08;0.55;;;6.50;91.90;;;;;;6206772;23;20012;-75
2023/02/05 08:16:26;;;;;;;1.75;0.63;;;6.50;91.80;;;;;;6233634;23;20004;-74
2023/02/05 08:18:52;;;;;;;1.73;0.30;;;6.60;91.80;;;;;;6205812;23;20012;-75
2023/02/05 08:21:20;;;;;;;2.25;0.60;;;6.60;91.80;;;;;;6180851;23;20494;-75
2023/02/05 08:23:46;;;;;;;0.95;0.50;;;6.60;91.80;;;;;;6203100;23;20000;-75
2023/02/05 08:26:13;;;;;;;2.78;0.68;;;6.60;91.80;;;;;;6204744;23;19997;-75
2023/02/05 08:28:39;;;;;;;3.50;0.77;;;6.60;91.80;;;;;;6230415;23;20012;-75
2023/02/05 08:31:10;;;;;;;4.80;0.65;;;6.70;91.80;;;;;;6170553;23;20005;-73
2023/02/05 08:33:36;;;;;;;2.92;0.70;;;6.60;91.70;;;;;;6216718;23;20079;-74
2023/02/05 08:36:01;;;;;;;3.85;0.93;;;6.60;91.70;;;;;;6168963;23;20020;-74
2023/02/05 08:38:27;;;;;;;2.50;0.65;;;6.70;91.70;;;;;;6171140;23;20015;-75
2023/02/05 08:40:52;;;;;;;2.38;0.65;;;6.70;91.70;;;;;;6195820;23;19997;-74
2023/02/05 08:43:18;;;;;;;1.08;0.85;;;6.70;91.70;;;;;;6171430;23;20020;-74
2023/02/05 08:45:46;;;;;;;3.03;1.02;;;6.70;91.70;;;;;;6145883;23;20005;-75
2023/02/05 08:48:12;;;;;;;3.33;0.93;;;6.70;91.70;;;;;;6196210;23;20534;-74
2023/02/05 08:50:38;;;;;;;4.50;0.90;;;6.70;91.70;;;;;;6196821;23;20000;-74
2023/02/05 08:53:03;;;;;;;2.80;0.70;;;6.70;91.70;;;;;;6172152;23;20027;-74
2023/02/05 08:55:29;;;;;;;2.55;1.00;;;6.60;91.70;;;;;;6175291;23;20000;-74
2023/02/05 08:57:55;;;;;;;3.17;0.80;;;6.70;91.70;;;;;;6226937;23;20095;-74
2023/02/05 09:00:20;;;;;;;3.03;0.90;;;6.60;91.70;;;;;;6198680;23;20028;-74
2023/02/05 09:02:46;;;;;;;2.20;1.00;;;6.60;91.80;;;;;;6227194;23;20008;-75
2023/02/05 09:05:12;;;;;;;2.72;0.50;;;6.60;91.80;;;;;;6231450;23;19997;-75
2023/02/05 09:07:39;;;;;;;2.53;0.77;;;6.60;91.80;;;;;;6209182;23;20012;-75
2023/02/05 09:10:07;;;;;;;2.53;0.80;;;6.60;91.70;;;;;;6230484;23;20016;-75
2023/02/05 09:12:32;;;;;;;6.28;1.20;;;6.60;91.70;;;;;;6233464;23;20004;-75
2023/02/05 09:14:58;;;;;;;4.05;1.30;;;6.70;91.70;;;;;;6232338;23;20000;-75
2023/02/05 09:17:24;;;;;;;4.05;0.73;;;6.70;92.00;;;;;;6182444;23;20020;-75
2023/02/05 09:19:50;;;;;;;3.28;0.63;;;6.80;91.70;;;;;;6205541;23;20111;-75
2023/02/05 09:22:17;;;;;;;4.15;1.02;;;6.80;91.60;;;;;;6206505;23;20016;-76
2023/02/05 09:24:42;;;;;;;3.65;0.85;;;6.80;91.70;;;;;;6205108;23;20000;-75
2023/02/05 09:27:12;;;;;;;2.08;0.70;;;6.90;91.60;;;;;;6204135;23;20023;-74
2023/02/05 09:29:39;;;;;;;3.50;0.95;;;7.00;91.60;;;;;;6232148;23;19997;-74
2023/02/05 09:32:05;;;;;;;6.45;1.13;;;7.00;91.50;;;;;;6205846;23;20027;-75
2023/02/05 09:34:31;;;;;;;5.47;0.85;;;7.00;91.50;;;;;;6153620;23;20001;-74
2023/02/05 09:36:56;;;;;;;5.13;1.00;;;7.00;91.40;;;;;;6230270;23;20007;-74
2023/02/05 09:39:22;;;;;;;6.00;0.80;;;7.00;91.50;;;;;;6229571;23;20016;-75
2023/02/05 09:42:06;;;;;;;5.78;1.15;;;7.10;91.50;;;;;;6229309;23;20065;-75
2023/02/05 09:44:55;;;;;;;3.88;0.98;;;7.20;91.50;;;;;;6203043;23;20019;-75
2023/02/05 09:47:37;;;;;;;4.75;1.20;;;7.30;91.40;;;;;;6229257;23;19996;-75
2023/02/05 09:50:14;;;;;;;4.88;1.08;;;7.30;91.30;;;;;;6219243;23;20059;-75
2023/02/05 09:52:43;;;;;;;4.55;1.40;;;7.30;91.20;;;;;;6165101;23;20004;-74
2023/02/05 09:55:22;;;;;;;2.00;1.00;;;7.40;91.20;;;;;;6181881;23;20008;-75
2023/02/05 09:57:50;;;;;;;5.10;1.27;;;7.50;91.20;;;;;;6212055;23;20001;-74
2023/02/05 10:00:29;;;;;;;4.95;1.25;;;7.40;91.10;;;;;;6214629;23;20024;-74
2023/02/05 10:03:08;;;;;;;6.10;1.05;;;7.50;91.20;;;;;;6211368;23;20448;-75
2023/02/05 10:05:47;;;;;;;2.45;0.90;;;7.50;91.10;;;;;;6211993;23;20001;-74
2023/02/05 10:08:27;;;;;;;7.55;1.00;;;7.50;91.10;;;;;;6185418;23;20005;-74
2023/02/05 10:10:54;;;;;;;4.20;1.25;;;7.60;91.10;;;;;;6114152;23;20001;-74
2023/02/05 10:13:33;;;;;;;6.28;1.10;;;7.60;91.00;;;;;;6214533;23;20004;-74
2023/02/05 10:16:28;;;;;;;5.63;1.40;;;7.60;91.00;;;;;;6212040;23;20012;-74
2023/02/05 10:19:18;;;;;;;7.72;1.33;;;7.60;90.90;;;;;;6187455;23;20019;-75
2023/02/05 10:22:19;;;;;;;6.50;1.25;;;7.60;90.90;;;;;;6185137;23;20313;-75
2023/02/05 10:25:03;;;;;;;4.32;1.13;;;7.60;90.90;;;;;;6185331;23;20032;-74
2023/02/05 10:27:59;;;;;;;5.55;1.75;;;7.60;90.90;;;;;;6187729;23;20007;-75
2023/02/05 10:30:44;;;;;;;6.10;1.33;;;7.70;90.80;;;;;;6187206;23;20332;-74
2023/02/05 10:33:17;;;;;;;7.47;1.30;;;7.70;90.80;;;;;;6187228;23;20124;-75
2023/02/05 10:35:58;;;;;;;2.72;1.20;;;7.80;90.70;;;;;;6211288;23;20526;-74
2023/02/05 10:38:27;;;;;;;5.32;1.52;;;7.80;90.60;;;;;;6212764;23;20040;-74
2023/02/05 10:40:59;;;;;;;6.70;1.50;;;7.80;90.60;;;;;;6214568;23;20075;-75
2023/02/05 10:43:42;;;;;;;3.20;1.10;;;7.80;90.50;;;;;;6214190;23;20425;-74
2023/02/05 10:46:16;;;;;;;5.28;1.38;;;7.90;90.50;;;;;;6190343;23;20004;-75
2023/02/05 10:49:18;;;;;;;6.80;1.45;;;7.90;90.50;;;;;;6162943;23;20005;-75
2023/02/05 10:51:44;;;;;;;5.00;1.15;;;8.00;90.40;;;;;;6166649;23;20035;-74
2023/02/05 10:54:26;;;;;;;3.33;1.00;;;8.00;90.40;;;;;;6187600;23;20063;-74
2023/02/05 10:56:51;;;;;;;;;;;8.00;90.30;;;;;;6185365;23;20000;-74
2023/02/05 10:59:22;;;;;;;6.82;1.70;;;7.90;90.30;;;;;;6187549;23;19966;-75
2023/02/05 11:01:49;;;;;;;6.15;1.35;;;7.90;90.30;;;;;;6212365;23;20004;-75
2023/02/05 11:04:38;;;;;;;3.50;1.08;;;7.90;90.30;;;;;;6138545;23;20007;-77
2023/02/05 11:07:07;;;;;;;3.38;1.10;;;7.90;90.30;;;;;;6162357;23;19996;-75
2023/02/05 11:09:34;;;;;;;6.28;1.30;;;7.90;90.20;;;;;;6163958;23;20329;-76
2023/02/05 11:12:03;;;;;;;4.40;1.15;;;8.00;90.20;;;;;;6188222;23;20012;-75
2023/02/05 11:14:39;;;;;;;6.60;1.63;;;7.90;90.20;;;;;;6214857;23;20005;-75
2023/02/05 11:17:23;;;;;;;6.15;1.73;;;7.90;90.20;;;;;;6162242;23;20388;-74
2023/02/05 11:20:00;;;;;;;3.75;1.20;;;7.90;90.20;;;;;;6163150;23;20070;-75
2023/02/05 11:23:20;;;;;;;6.72;1.63;;;7.90;90.10;;;;;;6186671;23;20085;-78
2023/02/05 11:29:36;;;;;;;3.28;0.95;;;8.00;90.10;;;;;;5978848;24;20016;-79
2023/02/05 11:32:02;;;;;;;3.40;1.02;;;8.10;90.00;;;;;;5979609;24;20024;-76
2023/02/05 11:34:30;;;;;;;5.25;1.10;;;8.00;90.00;;;;;;5979588;24;20020;-76
2023/02/05 11:36:57;;;;;;;4.50;1.27;;;8.10;89.90;;;;;;5979419;24;20057;-75
2023/02/05 11:39:35;;;;;;;3.42;1.25;;;8.10;89.90;;;;;;5980745;23;20030;-76
2023/02/05 11:42:20;;;;;;;4.65;1.10;;;8.20;89.80;;;;;;5978596;24;20023;-75
2023/02/05 11:44:52;;;;;;;6.45;1.20;;;8.20;89.70;;;;;;5958300;24;20102;-75
2023/02/05 11:47:24;;;;;;;4.88;1.40;;;8.30;89.60;;;;;;5982559;24;20036;-77
2023/02/05 11:49:51;;;;;;;4.88;1.10;;;8.40;89.60;;;;;;5958940;24;20099;-78
2023/02/05 11:52:32;;;;;;;4.03;0.90;;;8.50;89.30;;;;;;5959747;24;20012;-76
2023/02/05 11:54:58;;;;;;;6.40;1.13;;;8.50;89.10;;;;;;6016323;23;20014;-77
2023/02/05 11:57:34;;;;;;;6.13;1.13;;;8.50;88.90;;;;;;6066631;23;20014;-76
2023/02/05 12:00:20;;;;;;;5.18;1.33;;;8.60;88.70;;;;;;6196782;23;20075;-76
2023/02/05 12:02:50;;;;;;;6.72;1.67;;;8.60;88.60;;;;;;6189504;23;20001;-76
2023/02/05 12:05:20;;;;;;;7.13;1.60;;;8.50;88.60;;;;;;6192667;23;20055;-76
2023/02/05 12:07:59;;;;;;;5.63;1.40;;;8.50;88.60;;;;;;6190718;23;20001;-75
2023/02/05 12:10:42;;;;;;;5.93;1.58;;;8.50;88.70;;;;;;6191628;23;20005;-76
2023/02/05 12:13:21;;;;;;;4.20;0.95;;;8.40;88.90;;;;;;6215943;23;20001;-77
2023/02/05 12:15:58;;;;;;;5.22;1.30;;;8.40;89.00;;;;;;6189742;23;20003;-76
2023/02/05 12:18:46;;;;;;;3.03;0.90;;;8.40;89.00;;;;;;6164812;23;20512;-75
2023/02/05 12:21:40;;;;;;;8.18;1.38;;;8.40;89.70;;;;;;6165667;23;20001;-77
2023/02/05 12:24:24;;;;;;;5.18;1.02;;;8.50;88.90;;;;;;6226921;23;20012;-75
2023/02/05 12:26:57;;;;;;;5.57;1.10;;;8.60;88.70;;;;;;6227806;23;20009;-77
2023/02/05 12:29:53;;;;;;;4.60;1.13;;;8.50;88.50;;;;;;6207065;23;20320;-78
2023/02/05 12:32:36;;;;;;;3.95;1.10;;;8.60;88.60;;;;;;6168861;23;20015;-78
2023/02/05 12:35:38;;;;;;;6.88;1.50;;;8.60;88.40;;;;;;6169941;23;20017;-77
2023/02/05 12:38:19;;;;;;;4.78;1.20;;;8.80;88.20;;;;;;6191802;23;20078;-78
2023/02/05 12:41:07;;;;;;;4.90;1.13;;;8.80;87.70;;;;;;6138337;23;20017;-77
2023/02/05 12:43:38;;;;;;;5.22;1.48;;;8.90;87.50;;;;;;6188995;23;20455;-77
2023/02/05 12:46:20;;;;;;;4.60;1.10;;;9.10;87.50;;;;;;6168432;23;20008;-78
2023/02/05 12:49:06;;;;;;;7.20;1.58;;;9.20;87.10;;;;;;6200019;23;20429;-77
2023/02/05 12:51:50;;;;;;;4.25;1.20;;;9.10;86.70;;;;;;6086431;23;20028;-77
2023/02/05 12:54:49;;;;;;;4.70;1.20;;;9.10;87.10;;;;;;6075016;23;20463;-75
2023/02/05 12:57:23;;;;;;;5.07;1.42;;;9.20;87.10;;;;;;6100911;23;20042;-74
2023/02/05 12:59:54;;;;;;;5.03;1.52;;;9.10;86.50;;;;;;6046529;23;20414;-78
2023/02/05 13:02:33;;;;;;;;;;;9.10;86.40;;;;;;6047006;23;20415;-77
2023/02/05 13:05:30;;;;;;;3.50;1.20;;;9.10;86.50;;;;;;6069640;23;19995;-76
2023/02/05 13:08:26;;;;;;;3.22;1.13;;;9.00;86.40;;;;;;6075297;23;20002;-79
2023/02/05 13:11:06;;;;;;;7.47;1.80;;;9.00;86.50;;;;;;6022403;23;20516;-79
2023/02/05 13:13:42;;;;;;;7.05;1.70;;;8.90;86.30;;;;;;5994755;23;20095;-78
2023/02/05 13:16:13;;;;;;;6.32;1.30;;;8.80;86.30;;;;;;5942624;24;20035;-75
2023/02/05 13:18:43;;;;;;;4.20;1.20;;;8.70;86.60;;;;;;5986926;23;20024;-75
2023/02/05 13:29:49;;;;;;;4.97;1.00;;;8.90;86.60;;;;;;6077829;23;20090;-74
2023/02/05 13:32:20;;;;;;;3.08;0.90;;;9.00;86.20;;;;;;6022507;23;20019;-76
2023/02/05 13:34:46;;;;;;;6.22;1.30;;;9.30;85.90;;;;;;6028999;23;20472;-75